Time;durP1;ratioP1;P1;durP2;ratioP2;P2;SDS_P1;SDS_P2;PMS_P1;PMS_P2;Temp;Humidity;BMP_temperature;BMP_pressure;BME280_temperature;BME280_humidity;BME280_pressure;Samples;Min_cycle;Max_cycle;Signal;HPM_P1;HPM_P2
2023/01/10 00:00:34;;;;;;;4.50;1.73;;;;;;;-18.38;54.30;102146.53;4791274;29;20406;-81
2023/01/10 00:03:01;;;;;;;5.07;2.23;;;;;;;-18.32;54.52;102157.38;4807244;29;20064;-82
2023/01/10 00:05:27;;;;;;;3.37;2.07;;;;;;;-18.07;55.08;102165.84;4806920;29;20050;-81
2023/01/10 00:07:54;;;;;;;3.83;1.33;;;;;;;-18.10;54.52;102152.97;4807181;29;20062;-83
2023/01/10 00:10:20;;;;;;;1.40;0.97;;;;;;;-18.29;54.86;102127.97;4806004;29;20059;-82
2023/01/10 00:15:32;;;;;;;2.20;1.23;;;;;;;-18.23;54.00;102121.41;4807026;29;20051;-80
2023/01/10 00:17:58;;;;;;;3.17;1.67;;;;;;;-18.39;54.06;102104.97;4806927;29;20095;-81
2023/01/10 00:20:24;;;;;;;3.83;1.90;;;;;;;-18.34;54.89;102077.63;4806809;29;20043;-83
2023/01/10 00:22:50;;;;;;;5.17;2.60;;;;;;;-17.84;54.68;102128.38;4806801;29;20054;-80
2023/01/10 00:25:20;;;;;;;6.27;2.43;;;;;;;-17.96;54.18;102116.00;4790599;29;20050;-81
2023/01/10 00:30:34;;;;;;;3.67;1.40;;;;;;;-18.12;53.51;102134.44;4805757;29;20054;-81
2023/01/10 00:33:00;;;;;;;4.60;2.07;;;;;;;-18.14;54.52;102129.28;4807061;29;20049;-83
2023/01/10 00:35:26;;;;;;;5.57;2.20;;;;;;;-18.02;54.75;102097.78;4805742;29;20050;-80
2023/01/10 00:37:56;;;;;;;3.33;2.00;;;;;;;-17.91;54.03;102106.72;4805445;29;20524;-82
2023/01/10 00:40:22;;;;;;;2.70;1.63;;;;;;;-17.76;54.57;102121.31;4805621;29;20080;-81
2023/01/10 00:45:33;;;;;;;3.93;2.13;;;;;;;-17.40;54.89;102130.28;4809499;29;20133;-82
2023/01/10 00:47:58;;;;;;;4.10;2.10;;;;;;;-17.41;54.20;102126.94;4818296;29;20593;-82
2023/01/10 00:50:24;;;;;;;6.67;2.50;;;;;;;-17.67;54.28;102071.03;4822854;29;20054;-79
2023/01/10 00:52:50;;;;;;;2.97;1.97;;;;;;;-17.40;54.24;102117.84;4814896;29;20054;-82
2023/01/10 00:55:18;;;;;;;3.40;1.33;;;;;;;-17.34;53.62;102114.66;4808413;29;20051;-81
2023/01/10 00:57:44;;;;;;;2.97;2.20;;;;;;;-17.56;53.33;102108.25;4817289;29;20057;-81
2023/01/10 01:00:11;;;;;;;6.40;1.80;;;;;;;-17.58;53.97;102092.22;4790399;29;20055;-81
2023/01/10 01:02:37;;;;;;;2.33;1.20;;;;;;;-17.43;53.78;102114.25;4805137;29;20441;-80
2023/01/10 01:05:03;;;;;;;8.27;2.83;;;;;;;-17.61;54.09;102100.16;4790010;29;20047;-82
2023/01/10 01:07:29;;;;;;;5.23;2.07;;;;;;;-17.61;54.46;102076.84;4804983;29;20062;-80
2023/01/10 01:12:40;;;;;;;5.47;2.30;;;;;;;-17.48;53.09;102100.28;4805824;29;20528;-82
2023/01/10 01:15:06;;;;;;;4.10;2.17;;;;;;;-17.67;53.60;102066.94;4804586;29;20086;-81
2023/01/10 01:17:32;;;;;;;1.07;0.93;;;;;;;-17.47;54.44;102076.28;4804637;29;20042;-81
2023/01/10 01:19:58;;;;;;;6.67;1.83;;;;;;;-17.43;53.97;102069.44;4804561;29;20061;-80
2023/01/10 01:22:24;;;;;;;3.53;1.53;;;;;;;-17.38;53.52;102077.56;4805665;29;20097;-83
2023/01/10 01:24:50;;;;;;;2.83;1.70;;;;;;;-17.34;54.29;102063.94;4789318;29;20468;-81
2023/01/10 01:27:16;;;;;;;2.80;1.73;;;;;;;-17.42;53.32;102066.25;4805637;29;20043;-80
2023/01/10 01:29:42;;;;;;;5.13;2.40;;;;;;;-17.34;53.86;102081.38;4804965;29;20115;-79
2023/01/10 01:32:09;;;;;;;5.37;2.07;;;;;;;-17.27;54.16;102060.00;4806036;29;20144;-79
2023/01/10 01:34:35;;;;;;;3.73;1.90;;;;;;;-17.30;53.46;102051.22;4806575;29;20548;-80
2023/01/10 01:37:01;;;;;;;5.77;2.30;;;;;;;-17.29;53.70;102034.00;4804777;29;20046;-81
2023/01/10 01:39:27;;;;;;;3.60;1.73;;;;;;;-17.39;52.62;102030.03;4805558;29;20053;-80
2023/01/10 01:41:55;;;;;;;3.87;2.17;;;;;;;-17.40;54.04;102034.13;4805098;29;20050;-80
2023/01/10 01:44:23;;;;;;;6.37;3.00;;;;;;;-17.21;54.51;102052.50;4803837;29;20047;-81
2023/01/10 01:47:00;;;;;;;4.23;2.17;;;;;;;-17.08;52.84;102060.03;4804207;29;20047;-80
2023/01/10 01:49:27;;;;;;;5.70;2.07;;;;;;;-17.09;54.00;102034.94;4803665;29;20047;-79
2023/01/10 01:52:00;;;;;;;4.67;2.40;;;;;;;-16.85;53.68;102048.22;4804927;29;20042;-80
2023/01/10 01:54:29;;;;;;;6.47;1.80;;;;;;;-17.34;52.85;102025.03;4805456;29;20054;-80
2023/01/10 01:57:20;;;;;;;6.17;2.43;;;;;;;-17.25;53.98;102061.81;4804175;29;20119;-81
2023/01/10 01:59:51;;;;;;;7.40;2.60;;;;;;;-17.10;54.77;102078.88;4788855;29;20046;-80
2023/01/10 02:02:30;;;;;;;6.38;2.60;;;;;;;-17.16;53.93;102081.41;4803699;29;20184;-82
2023/01/10 02:05:01;;;;;;;5.00;1.87;;;;;;;-17.42;54.14;102050.44;4803951;29;20171;-80
2023/01/10 02:07:33;;;;;;;4.40;2.23;;;;;;;-17.48;54.05;102053.00;4809083;29;20065;-82
2023/01/10 02:10:05;;;;;;;;;;;;;;;-17.18;53.60;102095.25;4806348;29;20058;-82
2023/01/10 02:12:32;;;;;;;2.10;1.43;;;;;;;-17.21;54.12;102077.41;4811707;29;19925;-82
2023/01/10 02:14:58;;;;;;;5.17;2.17;;;;;;;-17.29;53.93;102056.41;4804206;29;20057;-80
2023/01/10 02:17:24;;;;;;;3.43;1.97;;;;;;;-17.19;53.19;102060.19;4805062;29;20139;-80
2023/01/10 02:19:53;;;;;;;2.53;1.20;;;;;;;-16.78;53.74;102098.91;4806096;29;20554;-80
2023/01/10 02:22:44;;;;;;;4.47;2.03;;;;;;;-16.66;54.25;102100.56;4804903;29;20051;-81
2023/01/10 02:25:22;;;;;;;4.47;2.10;;;;;;;-16.61;53.91;102087.13;4810556;29;20055;-80
2023/01/10 02:27:51;;;;;;;5.10;2.17;;;;;;;-16.61;54.44;102082.13;4819684;29;20035;-80
2023/01/10 02:31:11;;;;;;;5.87;2.13;;;;;;;-16.60;54.34;102083.94;4789038;29;20051;-80
2023/01/10 02:33:57;;;;;;;3.07;1.83;;;;;;;-16.47;55.05;102079.03;4788002;29;20578;-81
2023/01/10 02:36:38;;;;;;;4.50;2.17;;;;;;;-16.29;53.49;102079.69;4805118;29;20055;-81
2023/01/10 02:39:13;;;;;;;4.70;2.50;;;;;;;-16.27;54.51;102061.72;4803586;29;20117;-81
2023/01/10 02:41:48;;;;;;;5.33;2.37;;;;;;;-16.18;54.20;102072.03;4803423;29;20074;-81
2023/01/10 02:44:30;;;;;;;3.33;1.87;;;;;;;-16.37;52.97;102093.63;4789357;29;20043;-81
2023/01/10 02:46:56;;;;;;;6.97;2.58;;;;;;;-16.67;53.77;102069.75;4803893;29;20050;-82
2023/01/10 02:49:22;;;;;;;2.63;1.20;;;;;;;-16.68;52.66;102079.50;4803359;29;20043;-79
2023/01/10 02:51:49;;;;;;;4.43;1.83;;;;;;;-16.88;53.22;102064.34;4804605;29;20192;-82
2023/01/10 02:54:22;;;;;;;6.03;3.13;;;;;;;-16.89;53.71;102065.03;4805145;29;20039;-81
2023/01/10 02:57:17;;;;;;;6.13;2.40;;;;;;;-16.52;54.84;102080.00;4788555;29;20578;-82
2023/01/10 03:00:06;;;;;;;5.30;2.30;;;;;;;-16.56;53.55;102081.19;4802942;29;20463;-81
2023/01/10 03:03:03;;;;;;;3.77;1.97;;;;;;;-16.57;54.55;102083.44;4804657;29;20425;-81
2023/01/10 03:05:50;;;;;;;4.80;1.90;;;;;;;-16.56;53.49;102092.72;4806840;29;20818;-81
2023/01/10 03:08:42;;;;;;;4.33;2.37;;;;;;;-16.51;54.27;102091.75;4791531;29;20490;-80
2023/01/10 03:11:10;;;;;;;3.10;1.60;;;;;;;-16.51;53.58;102085.16;4808262;29;20180;-79
2023/01/10 03:13:49;;;;;;;4.63;2.43;;;;;;;-16.64;53.51;102070.84;4806509;29;20138;-82
2023/01/10 03:16:19;;;;;;;6.10;2.77;;;;;;;-16.54;54.37;102088.84;4808303;29;20183;-80
2023/01/10 03:19:00;;;;;;;4.10;1.50;;;;;;;-16.50;53.71;102083.59;4776999;29;20547;-81
2023/01/10 03:21:28;;;;;;;2.38;1.50;;;;;;;-16.49;53.60;102086.97;4808010;29;20058;-80
2023/01/10 03:23:59;;;;;;;8.10;2.97;;;;;;;-16.75;53.66;102062.81;4809608;29;20043;-81
2023/01/10 03:26:32;;;;;;;3.53;1.98;;;;;;;-17.07;53.49;102014.50;4808278;29;20102;-82
2023/01/10 03:29:07;;;;;;;2.77;1.83;;;;;;;-16.53;54.16;102080.69;4808210;29;20058;-80
2023/01/10 03:31:45;;;;;;;5.73;2.03;;;;;;;-16.76;53.83;102010.25;4808554;29;20055;-82
2023/01/10 03:34:13;;;;;;;5.53;1.93;;;;;;;-16.72;53.25;102043.31;4796886;29;20103;-84
2023/01/10 03:37:00;;;;;;;5.57;2.10;;;;;;;-16.21;55.45;102091.56;4813509;29;20520;-83
2023/01/10 03:39:38;;;;;;;4.37;2.30;;;;;;;-16.11;55.04;102073.78;4812955;29;20046;-83
2023/01/10 03:42:21;;;;;;;6.90;2.50;;;;;;;-16.19;55.00;102035.31;4810545;29;20102;-82
2023/01/10 03:45:12;;;;;;;6.20;2.37;;;;;;;-15.72;54.12;102071.31;4792203;29;20053;-80
2023/01/10 03:47:44;;;;;;;6.30;2.38;;;;;;;-15.52;54.99;102097.31;4808217;29;20047;-82
2023/01/10 03:50:12;;;;;;;4.55;2.30;;;;;;;-15.53;54.46;102088.03;4792517;29;20174;-83
2023/01/10 03:52:40;;;;;;;5.30;2.50;;;;;;;-15.39;54.99;102094.84;4808913;29;20051;-79
2023/01/10 03:55:09;;;;;;;5.03;2.53;;;;;;;-15.58;53.80;102066.56;4809317;29;20179;-80
2023/01/10 03:57:35;;;;;;;3.47;1.83;;;;;;;-15.46;52.98;102070.66;4822409;29;20053;-79
2023/01/10 04:00:03;;;;;;;11.60;3.00;;;;;;;-15.33;53.84;102088.16;4825563;29;20043;-82
2023/01/10 04:02:31;;;;;;;4.87;2.57;;;;;;;-15.36;53.19;102092.75;4809890;29;20054;-81
2023/01/10 04:04:58;;;;;;;5.57;2.77;;;;;;;-15.57;53.93;102040.91;4822420;29;20062;-82
2023/01/10 04:07:25;;;;;;;4.53;2.13;;;;;;;-15.61;53.07;102058.66;4799160;29;20409;-81
2023/01/10 04:09:51;;;;;;;3.63;1.90;;;;;;;-15.97;53.82;101983.25;4808269;29;20062;-82
2023/01/10 04:12:17;;;;;;;1.97;1.47;;;;;;;-16.14;53.95;101949.53;4793246;29;20047;-82
2023/01/10 04:14:46;;;;;;;5.47;2.23;;;;;;;-15.63;54.34;102023.50;4807775;29;20072;-82
2023/01/10 04:17:14;;;;;;;6.70;2.90;;;;;;;-15.29;54.00;102076.94;4804244;29;20042;-82
2023/01/10 04:19:41;;;;;;;5.20;2.63;;;;;;;-15.30;54.04;102082.66;4820708;29;20051;-81
2023/01/10 04:22:08;;;;;;;8.17;2.63;;;;;;;-15.58;53.47;102023.22;4807844;29;20432;-81
2023/01/10 04:24:34;;;;;;;9.80;3.63;;;;;;;-15.50;54.09;102005.13;4808716;29;20050;-81
2023/01/10 04:27:00;;;;;;;7.67;3.00;;;;;;;-14.95;53.71;102077.94;4806237;29;20102;-81
2023/01/10 04:29:26;;;;;;;3.37;1.53;;;;;;;-15.07;52.92;102077.25;4790502;29;20087;-81
2023/01/10 04:31:52;;;;;;;6.13;3.03;;;;;;;-15.12;53.43;102109.13;4806900;29;20424;-81
2023/01/10 04:34:21;;;;;;;5.47;2.37;;;;;;;-15.30;53.53;102082.66;4805549;29;20500;-81
2023/01/10 04:36:48;;;;;;;7.27;3.00;;;;;;;-15.23;53.92;102092.75;4790193;29;20054;-80
2023/01/10 04:39:14;;;;;;;5.80;2.40;;;;;;;-15.07;53.54;102114.72;4805557;29;20141;-80
2023/01/10 04:41:40;;;;;;;8.60;2.93;;;;;;;-14.97;53.95;102120.22;4806364;29;20050;-80
2023/01/10 04:44:07;;;;;;;5.50;2.40;;;;;;;-14.97;53.17;102117.75;4808858;29;20046;-82
2023/01/10 04:46:33;;;;;;;6.13;2.40;;;;;;;-14.82;54.23;102117.91;4807309;29;20049;-81
2023/01/10 04:49:00;;;;;;;7.50;2.63;;;;;;;-14.82;53.74;102118.81;4805571;29;20058;-81
2023/01/10 04:51:27;;;;;;;5.00;2.37;;;;;;;-14.93;53.19;102089.94;4803920;29;20058;-79
2023/01/10 04:53:53;;;;;;;7.03;2.90;;;;;;;-14.73;53.84;102101.59;4805362;29;20057;-82
2023/01/10 04:56:21;;;;;;;6.33;2.83;;;;;;;-14.78;53.44;102072.63;4790989;29;20047;-81
2023/01/10 04:58:48;;;;;;;6.13;2.67;;;;;;;-14.68;53.90;102076.44;4809501;29;20069;-81
2023/01/10 05:01:17;;;;;;;4.23;1.97;;;;;;;-14.51;53.82;102099.31;4806769;29;20133;-81
2023/01/10 05:03:43;;;;;;;5.23;2.67;;;;;;;-14.60;53.49;102069.94;4805861;29;20050;-81
2023/01/10 05:06:09;;;;;;;3.67;2.03;;;;;;;-14.58;52.16;102101.03;4805028;29;20080;-81
2023/01/10 05:08:35;;;;;;;6.33;2.47;;;;;;;-14.45;54.11;102123.50;4806260;29;20046;-81
2023/01/10 05:11:01;;;;;;;6.40;2.20;;;;;;;-14.55;52.95;102108.94;4807503;29;20559;-79
2023/01/10 05:13:27;;;;;;;3.17;1.97;;;;;;;-14.61;53.25;102103.13;4806817;29;20061;-81
2023/01/10 05:15:55;;;;;;;3.50;2.00;;;;;;;-14.56;53.09;102089.63;4790218;29;20055;-80
2023/01/10 05:18:21;;;;;;;5.33;2.77;;;;;;;-14.23;54.22;102124.63;4806746;29;20050;-80
2023/01/10 05:20:47;;;;;;;4.70;2.13;;;;;;;-14.47;53.02;102081.50;4792978;29;20084;-81
2023/01/10 05:23:13;;;;;;;7.53;2.43;;;;;;;-14.18;53.82;102135.25;4819655;29;20050;-81
2023/01/10 05:25:39;;;;;;;4.47;2.10;;;;;;;-14.59;53.44;102078.34;4805165;29;20104;-81
2023/01/10 05:28:05;;;;;;;5.60;2.60;;;;;;;-14.43;54.16;102074.59;4806006;29;20129;-80
2023/01/10 05:30:31;;;;;;;7.23;2.93;;;;;;;-13.87;54.22;102140.72;4822443;29;20057;-80
2023/01/10 05:32:57;;;;;;;5.73;2.40;;;;;;;-13.99;54.14;102098.41;4804668;29;20514;-79
2023/01/10 05:35:23;;;;;;;4.67;2.70;;;;;;;-14.30;52.94;102069.53;4805630;29;20070;-79
2023/01/10 05:37:49;;;;;;;5.30;2.40;;;;;;;-14.05;53.42;102142.72;4806044;29;20043;-79
2023/01/10 05:40:15;;;;;;;7.30;2.60;;;;;;;-14.59;52.96;102081.72;4804767;29;20054;-80
2023/01/10 05:42:41;;;;;;;4.50;2.60;;;;;;;-14.19;53.68;102128.44;4805625;29;20061;-79
2023/01/10 05:45:08;;;;;;;6.13;2.50;;;;;;;-14.04;53.69;102138.59;4791479;29;20211;-81
2023/01/10 05:47:34;;;;;;;4.43;2.30;;;;;;;-14.24;53.41;102130.38;4806871;29;20095;-81
2023/01/10 05:50:00;;;;;;;3.97;1.77;;;;;;;-14.13;52.77;102158.34;4790591;29;20046;-80
2023/01/10 05:52:26;;;;;;;11.27;2.53;;;;;;;-13.94;53.81;102162.47;4805448;29;20046;-79
2023/01/10 05:54:58;;;;;;;4.10;2.43;;;;;;;-13.73;53.54;102175.91;4808305;29;20050;-81
2023/01/10 05:57:29;;;;;;;3.13;1.67;;;;;;;-13.59;54.22;102174.25;4804481;29;20130;-80
2023/01/10 05:59:55;;;;;;;4.63;2.20;;;;;;;-13.83;53.71;102125.41;4788772;29;20655;-78
2023/01/10 06:02:25;;;;;;;5.50;2.30;;;;;;;-13.53;53.87;102187.53;4805019;29;20097;-79
2023/01/10 06:04:54;;;;;;;5.40;2.03;;;;;;;-13.76;53.03;102162.13;4804381;29;20053;-80
2023/01/10 06:07:21;;;;;;;2.87;1.50;;;;;;;-13.89;53.40;102134.63;4791707;29;20074;-80
2023/01/10 06:09:47;;;;;;;4.97;2.10;;;;;;;-13.57;53.49;102185.38;4805905;29;20055;-79
2023/01/10 06:12:13;;;;;;;4.07;1.90;;;;;;;-13.41;53.62;102201.63;4805638;29;20107;-79
2023/01/10 06:14:39;;;;;;;5.83;2.17;;;;;;;-13.71;53.76;102163.59;4806974;29;20046;-79
2023/01/10 06:17:08;;;;;;;4.13;2.03;;;;;;;-13.69;53.35;102188.13;4805697;29;20125;-80
2023/01/10 06:19:35;;;;;;;6.03;1.80;;;;;;;-13.77;53.95;102168.72;4804624;29;20043;-81
2023/01/10 06:22:07;;;;;;;4.23;2.10;;;;;;;-13.74;53.61;102166.59;4805600;29;20106;-79
2023/01/10 06:24:33;;;;;;;4.33;1.93;;;;;;;-13.33;53.41;102223.47;4805688;29;20082;-82
2023/01/10 06:26:59;;;;;;;2.27;1.40;;;;;;;-13.41;53.55;102198.19;4804148;29;20046;-81
2023/01/10 06:29:25;;;;;;;6.77;2.87;;;;;;;-13.25;53.35;102223.53;4804573;29;20478;-79
2023/01/10 06:31:51;;;;;;;7.20;1.90;;;;;;;-13.34;53.14;102230.81;4804118;29;20058;-80
2023/01/10 06:34:17;;;;;;;6.87;2.43;;;;;;;-13.41;53.06;102210.72;4789885;29;20056;-82
2023/01/10 06:36:44;;;;;;;5.03;1.77;;;;;;;-13.22;52.77;102226.44;4802751;29;20041;-81
2023/01/10 06:39:10;;;;;;;3.10;1.43;;;;;;;-13.59;52.72;102164.25;4809273;29;20133;-79
2023/01/10 06:41:36;;;;;;;3.33;1.73;;;;;;;-13.28;53.29;102194.00;4794612;29;20484;-81
2023/01/10 06:44:02;;;;;;;4.70;2.00;;;;;;;-12.91;53.87;102227.75;4810634;29;20069;-79
2023/01/10 06:46:28;;;;;;;2.67;1.03;;;;;;;-13.37;52.39;102135.19;4810258;29;20085;-81
2023/01/10 06:49:28;;;;;;;5.03;1.93;;;;;;;-12.96;52.94;102206.22;4813141;29;20058;-80
2023/01/10 06:52:09;;;;;;;4.53;1.77;;;;;;;-14.12;53.02;102005.88;4791253;29;20070;-81
2023/01/10 06:54:48;;;;;;;4.37;1.73;;;;;;;-14.32;52.81;101959.94;4797657;29;20148;-80
2023/01/10 06:57:15;;;;;;;4.93;2.00;;;;;;;-13.11;53.15;102165.97;4810843;29;20049;-80
2023/01/10 06:59:41;;;;;;;6.87;2.93;;;;;;;-12.76;53.06;102214.59;4811325;29;20126;-82
2023/01/10 07:02:10;;;;;;;6.23;2.00;;;;;;;-13.05;52.70;102159.22;4782934;29;20089;-82
2023/01/10 07:04:37;;;;;;;3.50;1.63;;;;;;;-12.87;52.70;102189.78;4811009;29;20103;-82
2023/01/10 07:07:03;;;;;;;3.83;1.93;;;;;;;-12.78;51.77;102218.50;4811683;29;20055;-81
2023/01/10 07:09:29;;;;;;;4.43;1.60;;;;;;;-12.93;53.25;102184.91;4795876;29;20462;-80
2023/01/10 07:11:56;;;;;;;5.77;2.07;;;;;;;-12.68;52.73;102209.59;4811131;29;20095;-82
2023/01/10 07:14:22;;;;;;;4.47;1.83;;;;;;;-12.88;52.56;102161.31;4809576;29;20061;-80
2023/01/10 07:16:49;;;;;;;4.00;1.43;;;;;;;-12.85;52.35;102174.94;4794867;29;20141;-80
2023/01/10 07:19:17;;;;;;;3.73;1.83;;;;;;;-12.62;52.81;102215.38;4808973;29;20085;-81
2023/01/10 07:21:43;;;;;;;4.37;2.00;;;;;;;-12.58;52.82;102215.03;4809407;29;20047;-82
2023/01/10 07:24:09;;;;;;;3.80;1.60;;;;;;;-12.45;52.85;102212.41;4793789;29;20076;-83
2023/01/10 07:26:35;;;;;;;4.90;2.10;;;;;;;-12.59;52.98;102171.50;4794606;29;20133;-80
2023/01/10 07:29:01;;;;;;;4.33;1.90;;;;;;;-12.26;52.60;102228.09;4809788;29;20051;-80
2023/01/10 07:31:27;;;;;;;3.90;1.90;;;;;;;-12.75;52.63;102161.19;4815693;29;20061;-79
2023/01/10 07:33:53;;;;;;;5.03;2.20;;;;;;;-12.42;52.65;102208.66;4813793;29;20046;-81
2023/01/10 07:36:20;;;;;;;3.07;1.50;;;;;;;-12.40;52.25;102228.94;4811519;29;20149;-83
2023/01/10 07:38:47;;;;;;;4.60;2.07;;;;;;;-12.69;52.54;102192.78;4815041;29;20459;-80
2023/01/10 07:41:13;;;;;;;3.17;1.50;;;;;;;-12.42;52.62;102226.22;4798062;29;20085;-80
2023/01/10 07:43:41;;;;;;;4.33;1.73;;;;;;;-12.44;52.68;102217.59;4810474;29;20112;-81
2023/01/10 07:46:10;;;;;;;5.27;1.83;;;;;;;-12.38;51.57;102234.13;4808013;29;20067;-81
2023/01/10 07:48:40;;;;;;;5.27;1.53;;;;;;;-12.60;52.37;102211.44;4794444;29;20141;-82
2023/01/10 07:51:06;;;;;;;3.47;1.63;;;;;;;-12.28;52.58;102234.56;4816037;29;20057;-81
2023/01/10 07:53:32;;;;;;;4.17;1.37;;;;;;;-12.61;52.17;102190.47;4817134;29;20070;-81
2023/01/10 07:56:00;;;;;;;4.67;1.53;;;;;;;-12.19;52.06;102242.28;4814664;29;20058;-81
2023/01/10 07:58:27;;;;;;;3.43;1.40;;;;;;;-12.20;51.87;102227.94;4830376;29;20041;-81
2023/01/10 08:01:01;;;;;;;4.33;1.90;;;;;;;-12.39;51.73;102203.13;4829483;29;20114;-81
2023/01/10 08:03:32;;;;;;;6.37;1.37;;;;;;;-12.15;52.13;102246.97;4813820;29;20119;-79
2023/01/10 08:06:07;;;;;;;3.57;2.17;;;;;;;-12.24;52.14;102236.69;4823386;29;20066;-81
2023/01/10 08:08:33;;;;;;;4.63;2.13;;;;;;;-12.24;52.35;102211.59;4809108;29;20106;-81
2023/01/10 08:11:01;;;;;;;4.27;1.80;;;;;;;-12.21;51.85;102237.06;4827933;29;20050;-83
2023/01/10 08:13:29;;;;;;;5.13;2.03;;;;;;;-12.23;51.76;102222.53;4824401;29;20046;-80
2023/01/10 08:15:55;;;;;;;5.57;1.40;;;;;;;-12.01;52.23;102263.69;4829280;29;20023;-79
2023/01/10 08:18:22;;;;;;;3.10;1.60;;;;;;;-12.12;51.74;102258.28;4828306;29;20038;-81
2023/01/10 08:20:52;;;;;;;6.13;1.83;;;;;;;-12.13;51.56;102225.44;4828302;29;20030;-82
2023/01/10 08:23:19;;;;;;;2.40;0.97;;;;;;;-11.99;51.54;102248.13;4827913;29;20036;-81
2023/01/10 08:25:46;;;;;;;4.67;2.10;;;;;;;-11.94;52.31;102228.53;4813435;29;20110;-80
2023/01/10 08:28:12;;;;;;;3.73;1.77;;;;;;;-11.62;51.89;102259.13;4828545;29;20047;-78
2023/01/10 08:30:39;;;;;;;4.27;1.70;;;;;;;-11.61;51.82;102249.97;4813962;29;20209;-80
2023/01/10 08:33:08;;;;;;;6.27;2.33;;;;;;;-11.89;51.33;102252.59;4810260;29;20052;-79
2023/01/10 08:35:46;;;;;;;4.03;1.20;;;;;;;-11.85;51.60;102222.13;4811916;29;20050;-81
2023/01/10 08:38:12;;;;;;;5.50;1.40;;;;;;;-11.68;51.25;102233.25;4811442;29;20043;-80
2023/01/10 08:40:38;;;;;;;3.97;1.80;;;;;;;-11.83;51.75;102220.69;4812170;29;20054;-81
2023/01/10 08:43:07;;;;;;;3.17;1.47;;;;;;;-11.73;51.46;102227.69;4809419;29;20466;-80
2023/01/10 08:45:33;;;;;;;3.60;1.60;;;;;;;-12.03;50.86;102202.38;4811722;29;20046;-81
2023/01/10 08:48:02;;;;;;;5.23;1.70;;;;;;;-11.84;51.66;102196.28;4809756;29;20053;-80
2023/01/10 08:50:29;;;;;;;5.03;2.20;;;;;;;-11.46;51.55;102228.28;4808745;29;20080;-79
2023/01/10 08:52:58;;;;;;;5.90;1.40;;;;;;;-12.06;50.69;102144.22;4809473;29;20101;-81
2023/01/10 08:55:24;;;;;;;4.53;1.90;;;;;;;-11.62;50.45;102236.53;4805757;29;20527;-81
2023/01/10 08:57:50;;;;;;;4.73;1.33;;;;;;;-11.59;50.94;102229.34;4806249;29;20053;-82
2023/01/10 09:00:17;;;;;;;4.10;1.70;;;;;;;-11.39;51.50;102228.28;4789173;29;20077;-81
2023/01/10 09:02:43;;;;;;;2.50;1.60;;;;;;;-11.60;50.44;102191.44;4779019;29;20508;-79
2023/01/10 09:05:09;;;;;;;3.00;1.50;;;;;;;-12.01;49.96;102139.03;4816644;29;20133;-79
2023/01/10 09:07:36;;;;;;;4.67;1.73;;;;;;;-11.57;51.02;102200.25;4791980;29;20200;-80
2023/01/10 09:10:03;;;;;;;3.67;1.70;;;;;;;-11.64;49.74;102207.78;4807263;29;20051;-82
2023/01/10 09:15:14;;;;;;;3.03;1.10;;;;;;;-11.51;50.23;102221.06;4794687;29;20433;-80
2023/01/10 09:17:40;;;;;;;5.00;1.50;;;;;;;-11.54;49.96;102237.41;4810971;29;20054;-78
2023/01/10 09:20:08;;;;;;;6.40;1.70;;;;;;;-11.55;51.00;102206.34;4808245;29;20192;-80
2023/01/10 09:22:38;;;;;;;3.20;1.83;;;;;;;-11.44;50.34;102199.19;4806144;29;20073;-81
2023/01/10 09:25:08;;;;;;;3.57;1.73;;;;;;;-11.19;51.13;102213.00;4805191;29;20066;-82
2023/01/10 09:27:44;;;;;;;5.87;1.47;;;;;;;-11.18;50.69;102218.94;4806926;29;20042;-81
2023/01/10 09:30:14;;;;;;;9.03;2.30;;;;;;;-12.09;49.78;102050.97;4793312;29;20058;-80
2023/01/10 09:32:53;;;;;;;1.13;0.97;;;;;;;-12.19;50.07;102022.25;4794430;29;20053;-83
2023/01/10 09:35:30;;;;;;;3.43;1.57;;;;;;;-12.53;50.27;101968.09;4817464;29;20141;-82
2023/01/10 09:38:06;;;;;;;6.60;1.77;;;;;;;-11.78;49.48;102099.72;4811381;29;20030;-82
2023/01/10 09:41:01;;;;;;;4.40;1.67;;;;;;;-10.72;50.30;102241.91;4824242;29;20050;-84
2023/01/10 09:44:27;;;;;;;5.47;2.07;;;;;;;-10.91;49.24;102243.91;4793451;29;20529;-81
2023/01/10 09:47:34;;;;;;;5.40;1.90;;;;;;;-12.19;49.52;102002.16;4808889;29;20088;-81
2023/01/10 09:51:14;;;;;;;5.27;2.10;;;;;;;-10.79;49.90;102219.25;4809269;29;20505;-83
2023/01/10 09:53:44;;;;;;;10.70;1.63;;;;;;;-10.80;50.09;102199.84;4818015;29;20150;-83
2023/01/10 09:56:15;;;;;;;3.90;1.58;;;;;;;-10.66;49.33;102201.44;4807896;29;20173;-82
2023/01/10 09:58:50;;;;;;;6.73;1.70;;;;;;;-10.99;49.27;102121.34;4793251;29;20098;-82
2023/01/10 10:01:40;;;;;;;3.63;1.63;;;;;;;-11.69;49.29;101976.06;4792756;29;20051;-83
2023/01/10 10:04:15;;;;;;;5.03;1.63;;;;;;;-10.11;49.88;102226.03;4806446;29;20050;-84
2023/01/10 10:06:42;;;;;;;4.40;2.10;;;;;;;-10.64;49.56;102150.53;4806861;29;20122;-82
2023/01/10 10:09:24;;;;;;;2.65;1.60;;;;;;;-10.23;49.58;102225.53;4808594;29;20086;-84
2023/01/10 10:12:05;;;;;;;5.03;2.13;;;;;;;-10.39;48.17;102218.78;4808169;29;20042;-79
2023/01/10 10:14:46;;;;;;;4.80;1.93;;;;;;;-10.38;49.42;102218.03;4810113;29;20501;-83
2023/01/10 10:17:13;;;;;;;;;;;;;;;-10.41;48.68;102221.88;4807769;29;20115;-82
2023/01/10 10:19:44;;;;;;;1.30;0.60;;;;;;;-10.63;47.96;102229.50;4815653;29;19901;-83
2023/01/10 10:22:26;;;;;;;4.73;1.97;;;;;;;-10.53;48.82;102236.47;4812931;29;20065;-84
2023/01/10 10:25:27;;;;;;;5.13;2.07;;;;;;;-10.61;48.87;102228.94;4820798;29;20047;-82
2023/01/10 10:28:30;;;;;;;4.95;1.92;;;;;;;-10.95;49.02;102211.56;4820847;29;20050;-79
2023/01/10 10:31:20;;;;;;;3.53;1.50;;;;;;;-10.73;49.13;102219.97;4823117;29;20051;-80
2023/01/10 10:34:21;;;;;;;5.37;1.60;;;;;;;-10.45;49.47;102239.16;4806396;29;20047;-78
2023/01/10 10:37:21;;;;;;;5.70;1.80;;;;;;;-10.49;48.99;102213.44;4801086;29;20151;-82
2023/01/10 10:40:01;;;;;;;3.80;2.03;;;;;;;-10.53;49.14;102216.34;4798937;29;20054;-83
2023/01/10 10:42:52;;;;;;;6.17;1.80;;;;;;;-10.67;48.59;102202.16;4781439;29;20130;-82
2023/01/10 10:45:29;;;;;;;4.70;1.90;;;;;;;-10.63;48.59;102222.81;4793578;29;20051;-83
2023/01/10 10:48:14;;;;;;;2.93;1.97;;;;;;;-10.71;48.76;102195.91;4793270;29;20047;-82
2023/01/10 10:50:51;;;;;;;5.73;2.00;;;;;;;-10.41;49.53;102206.78;4806770;29;20078;-82
2023/01/10 10:53:18;;;;;;;3.40;1.83;;;;;;;-10.85;49.15;102117.91;4792329;29;20575;-85
2023/01/10 10:55:44;;;;;;;5.10;2.00;;;;;;;-10.27;48.87;102195.72;4810159;29;20043;-82
2023/01/10 10:58:13;;;;;;;3.13;1.90;;;;;;;-10.65;48.53;102151.28;4807263;29;20051;-88
2023/01/10 11:00:41;;;;;;;2.73;1.60;;;;;;;-10.37;49.04;102178.66;4806877;29;20046;-86
2023/01/10 11:03:25;;;;;;;5.90;1.97;;;;;;;-10.18;48.94;102199.25;4806656;29;20079;-81
2023/01/10 11:05:52;;;;;;;4.53;2.03;;;;;;;-10.38;48.87;102181.94;4809777;29;20130;-80
2023/01/10 11:08:21;;;;;;;1.47;1.30;;;;;;;-10.30;47.80;102216.38;4806385;29;20477;-82
2023/01/10 11:10:55;;;;;;;3.13;1.17;;;;;;;-10.67;47.95;102187.06;4791887;29;20047;-80
2023/01/10 11:13:40;;;;;;;6.13;2.33;;;;;;;-10.58;48.46;102228.38;4806280;29;20525;-84
2023/01/10 11:16:32;;;;;;;3.37;1.73;;;;;;;-10.52;49.36;102216.50;4806104;29;20536;-84
2023/01/10 11:19:16;;;;;;;3.55;1.15;;;;;;;-11.16;48.39;102104.34;4806976;29;20039;-85
2023/01/10 11:22:05;;;;;;;3.53;1.80;;;;;;;-10.60;49.26;102190.44;4777927;29;20061;-79
2023/01/10 11:24:49;;;;;;;4.47;1.90;;;;;;;-10.70;49.12;102167.47;4811857;29;20055;-80
2023/01/10 11:27:46;;;;;;;2.53;1.60;;;;;;;-10.98;48.71;102124.06;4802120;29;20085;-81
2023/01/10 11:30:35;;;;;;;4.10;1.80;;;;;;;-10.48;48.59;102230.34;4800464;29;20055;-82
2023/01/10 11:33:19;;;;;;;4.10;1.77;;;;;;;-10.87;48.13;102179.72;4809109;29;20497;-78
2023/01/10 11:36:01;;;;;;;4.80;1.87;;;;;;;-10.55;48.85;102253.03;4820500;29;20030;-83
2023/01/10 11:38:29;;;;;;;4.70;1.87;;;;;;;-12.01;49.17;101969.88;4795776;29;20038;-87
2023/01/10 11:41:19;;;;;;;5.47;2.00;;;;;;;-10.34;49.01;102210.13;4795144;29;20421;-85
2023/01/10 11:43:54;;;;;;;7.37;1.97;;;;;;;-11.64;48.62;102006.75;4796976;29;20043;-85
2023/01/10 11:46:26;;;;;;;4.50;2.00;;;;;;;-11.23;48.03;102075.06;4797829;29;20062;-82
2023/01/10 11:49:23;;;;;;;6.60;2.13;;;;;;;-11.85;48.37;101988.50;4811142;29;20046;-84
2023/01/10 11:52:57;;;;;;;3.57;1.97;;;;;;;-10.67;49.34;102184.53;4779766;29;20044;-83